Aeroporto :
LOGIN :

Iscrizione | Disclaimer

   EN    FR    IT 

 










Sommario :    VFR   VFR Marginale   IFR   IFR Intensivo   IFR Molto Intensivo
Visibilità : 
Base nubi : 
>= 8 km
>= 3000ft
5 / 8 km
1000 / 3000 ft
1500m / 5 km
500 / 1000 ft
800 / 1500m
200 / 500 ft
< 800m
< 200 ft
Simboli :   Temporali  Nebbia  Neve Forte  Precipitazioni Forti  Vento > 20 kt
SIGMETs :   Varie  Temporali  Ghiacco  Turbolenza  Onda orograficha  Ceneri Vulcaniche






- Altitudine del aeroporto : 230 ft


ETHB - Buckeburg Army

ULTIMO METAR :
  • 220520Z 33004KT 9999 SCT007 BKN034 13/11 Q1015 BLU BLU TEMPO GRN

METARs OBSOLETI :
  • 220420Z 33005KT 8000 SCT005 BKN030 13/11 Q1015 BLU BLU TEMPO GRN
  • 220320Z AUTO 34004KT 4900 // ////// 12/11 Q1014 ///

TAF TAF ETHB
Valido dal 22 a 05 ore il 22 a 14 ore UTC


220411Z 2205/2214 32007KT 8000 NSW SCT005 BKN030
TEMPO 2205/2207 34008KT 4000 -DZ BKN007 BKN015



MetMap, La meteo Aeronautica in un colpo d'occhio ! - Copyright ORBIFLY Dicembre 2007 - Disclaimer

ORBIFLY MET'MAP TEAM :

Programmazione e sviluppo : Alexandra Zaïnal
Concezione : Baudouin d'Aumeries
Aiuto per la programmazione : Marc-Olivier Méhu
Supporto tecnico e logistico : Manuel Goepfert
Aiuto per la traduzione : Arnaldo La Scala

Contatto : metmap@orbifly.com




FONTI E CREDITI :

   NOAA